sensor_id;sensor_type;location;lat;lon;timestamp;P1;durP1;ratioP1;P2;durP2;ratioP2
23474;SDS011;11910;52.086;21.066;2023-02-28T00:01:22;23.33;;;13.50;;
23474;SDS011;11910;52.086;21.066;2023-02-28T00:03:48;20.90;;;12.93;;
23474;SDS011;11910;52.086;21.066;2023-02-28T00:06:14;24.23;;;14.05;;
23474;SDS011;11910;52.086;21.066;2023-02-28T00:08:40;23.10;;;13.48;;
23474;SDS011;11910;52.086;21.066;2023-02-28T00:11:07;24.13;;;13.43;;
23474;SDS011;11910;52.086;21.066;2023-02-28T00:13:35;22.92;;;13.23;;
23474;SDS011;11910;52.086;21.066;2023-02-28T00:16:03;22.50;;;13.95;;
23474;SDS011;11910;52.086;21.066;2023-02-28T00:18:31;25.88;;;15.25;;
23474;SDS011;11910;52.086;21.066;2023-02-28T00:20:57;27.63;;;15.90;;
23474;SDS011;11910;52.086;21.066;2023-02-28T00:23:24;24.85;;;15.00;;
23474;SDS011;11910;52.086;21.066;2023-02-28T00:25:50;24.23;;;14.23;;
23474;SDS011;11910;52.086;21.066;2023-02-28T00:28:16;25.52;;;16.45;;
23474;SDS011;11910;52.086;21.066;2023-02-28T00:30:42;28.38;;;16.60;;
23474;SDS011;11910;52.086;21.066;2023-02-28T00:33:08;24.55;;;15.27;;
23474;SDS011;11910;52.086;21.066;2023-02-28T00:35:33;34.47;;;20.23;;
23474;SDS011;11910;52.086;21.066;2023-02-28T00:37:59;41.60;;;23.45;;
23474;SDS011;11910;52.086;21.066;2023-02-28T00:40:25;43.65;;;24.80;;
23474;SDS011;11910;52.086;21.066;2023-02-28T00:42:50;47.42;;;26.63;;
23474;SDS011;11910;52.086;21.066;2023-02-28T00:45:16;43.45;;;24.23;;
23474;SDS011;11910;52.086;21.066;2023-02-28T00:47:42;41.08;;;23.88;;
23474;SDS011;11910;52.086;21.066;2023-02-28T00:50:07;43.08;;;23.48;;
23474;SDS011;11910;52.086;21.066;2023-02-28T00:52:34;37.13;;;21.77;;
23474;SDS011;11910;52.086;21.066;2023-02-28T00:54:59;37.80;;;21.55;;
23474;SDS011;11910;52.086;21.066;2023-02-28T00:57:25;41.53;;;23.25;;
23474;SDS011;11910;52.086;21.066;2023-02-28T00:59:51;39.33;;;21.33;;
23474;SDS011;11910;52.086;21.066;2023-02-28T01:02:19;40.67;;;23.70;;
23474;SDS011;11910;52.086;21.066;2023-02-28T01:04:45;32.95;;;18.60;;
23474;SDS011;11910;52.086;21.066;2023-02-28T01:07:11;33.67;;;18.55;;
23474;SDS011;11910;52.086;21.066;2023-02-28T01:09:37;32.05;;;18.92;;
23474;SDS011;11910;52.086;21.066;2023-02-28T01:12:02;31.08;;;18.05;;
23474;SDS011;11910;52.086;21.066;2023-02-28T01:14:28;30.17;;;17.33;;
23474;SDS011;11910;52.086;21.066;2023-02-28T01:16:54;32.67;;;19.65;;
23474;SDS011;11910;52.086;21.066;2023-02-28T01:19:19;31.95;;;18.80;;
23474;SDS011;11910;52.086;21.066;2023-02-28T01:21:45;33.65;;;19.55;;
23474;SDS011;11910;52.086;21.066;2023-02-28T01:24:10;38.40;;;21.42;;
23474;SDS011;11910;52.086;21.066;2023-02-28T01:26:36;39.55;;;22.08;;
23474;SDS011;11910;52.086;21.066;2023-02-28T01:29:02;44.58;;;25.40;;
23474;SDS011;11910;52.086;21.066;2023-02-28T01:31:28;45.13;;;26.20;;
23474;SDS011;11910;52.086;21.066;2023-02-28T01:33:53;45.40;;;26.90;;
23474;SDS011;11910;52.086;21.066;2023-02-28T01:36:21;47.42;;;26.98;;
23474;SDS011;11910;52.086;21.066;2023-02-28T01:38:48;52.63;;;28.38;;
23474;SDS011;11910;52.086;21.066;2023-02-28T01:41:15;54.95;;;31.08;;
23474;SDS011;11910;52.086;21.066;2023-02-28T01:46:09;59.63;;;32.55;;
23474;SDS011;11910;52.086;21.066;2023-02-28T01:48:45;50.90;;;28.90;;
23474;SDS011;11910;52.086;21.066;2023-02-28T01:51:20;58.88;;;33.83;;
23474;SDS011;11910;52.086;21.066;2023-02-28T01:53:55;59.20;;;32.67;;
23474;SDS011;11910;52.086;21.066;2023-02-28T01:56:26;53.35;;;31.35;;
23474;SDS011;11910;52.086;21.066;2023-02-28T01:58:55;59.50;;;33.10;;
23474;SDS011;11910;52.086;21.066;2023-02-28T02:01:22;61.67;;;34.67;;
23474;SDS011;11910;52.086;21.066;2023-02-28T02:03:51;70.57;;;40.15;;
23474;SDS011;11910;52.086;21.066;2023-02-28T02:06:24;73.78;;;41.78;;
23474;SDS011;11910;52.086;21.066;2023-02-28T02:08:53;69.95;;;40.40;;
23474;SDS011;11910;52.086;21.066;2023-02-28T02:11:20;63.65;;;35.70;;
23474;SDS011;11910;52.086;21.066;2023-02-28T02:14:07;71.22;;;40.95;;
23474;SDS011;11910;52.086;21.066;2023-02-28T02:27:48;47.05;;;28.88;;
23474;SDS011;11910;52.086;21.066;2023-02-28T02:41:18;44.40;;;26.38;;
23474;SDS011;11910;52.086;21.066;2023-02-28T02:49:03;42.53;;;24.65;;
23474;SDS011;11910;52.086;21.066;2023-02-28T02:54:10;35.03;;;21.50;;
23474;SDS011;11910;52.086;21.066;2023-02-28T02:56:49;32.15;;;19.75;;
23474;SDS011;11910;52.086;21.066;2023-02-28T02:59:17;35.15;;;21.95;;
23474;SDS011;11910;52.086;21.066;2023-02-28T03:01:50;32.20;;;19.67;;
23474;SDS011;11910;52.086;21.066;2023-02-28T03:04:21;32.53;;;20.67;;
23474;SDS011;11910;52.086;21.066;2023-02-28T03:06:50;31.92;;;18.48;;
23474;SDS011;11910;52.086;21.066;2023-02-28T03:09:19;31.42;;;20.17;;
23474;SDS011;11910;52.086;21.066;2023-02-28T03:11:48;30.90;;;19.52;;
23474;SDS011;11910;52.086;21.066;2023-02-28T03:14:34;32.30;;;18.90;;
23474;SDS011;11910;52.086;21.066;2023-02-28T03:17:24;32.85;;;18.10;;
23474;SDS011;11910;52.086;21.066;2023-02-28T03:20:07;27.40;;;17.70;;
23474;SDS011;11910;52.086;21.066;2023-02-28T03:22:51;27.88;;;16.73;;
23474;SDS011;11910;52.086;21.066;2023-02-28T03:28:17;25.75;;;15.70;;
23474;SDS011;11910;52.086;21.066;2023-02-28T03:33:20;25.00;;;15.43;;
23474;SDS011;11910;52.086;21.066;2023-02-28T03:35:54;25.67;;;14.93;;
23474;SDS011;11910;52.086;21.066;2023-02-28T03:41:05;24.92;;;15.10;;
23474;SDS011;11910;52.086;21.066;2023-02-28T03:43:38;24.50;;;14.77;;
23474;SDS011;11910;52.086;21.066;2023-02-28T03:46:09;27.33;;;15.43;;
23474;SDS011;11910;52.086;21.066;2023-02-28T03:51:08;29.42;;;16.60;;
23474;SDS011;11910;52.086;21.066;2023-02-28T03:53:42;28.20;;;16.17;;
23474;SDS011;11910;52.086;21.066;2023-02-28T03:56:16;23.33;;;15.45;;
23474;SDS011;11910;52.086;21.066;2023-02-28T03:58:47;23.58;;;14.32;;
23474;SDS011;11910;52.086;21.066;2023-02-28T04:01:41;25.42;;;15.05;;
23474;SDS011;11910;52.086;21.066;2023-02-28T04:04:09;24.10;;;14.07;;
23474;SDS011;11910;52.086;21.066;2023-02-28T04:06:35;25.63;;;14.27;;
23474;SDS011;11910;52.086;21.066;2023-02-28T04:09:02;24.40;;;15.75;;
23474;SDS011;11910;52.086;21.066;2023-02-28T04:11:36;25.90;;;14.18;;
23474;SDS011;11910;52.086;21.066;2023-02-28T04:14:08;24.30;;;15.77;;
23474;SDS011;11910;52.086;21.066;2023-02-28T04:16:36;24.10;;;14.15;;
23474;SDS011;11910;52.086;21.066;2023-02-28T04:19:03;25.80;;;15.18;;
23474;SDS011;11910;52.086;21.066;2023-02-28T04:21:31;25.38;;;15.10;;
23474;SDS011;11910;52.086;21.066;2023-02-28T04:23:58;26.83;;;16.77;;
23474;SDS011;11910;52.086;21.066;2023-02-28T04:26:27;25.08;;;16.42;;
23474;SDS011;11910;52.086;21.066;2023-02-28T04:28:54;25.92;;;16.52;;
23474;SDS011;11910;52.086;21.066;2023-02-28T04:31:20;30.00;;;18.23;;
23474;SDS011;11910;52.086;21.066;2023-02-28T04:33:46;31.10;;;18.38;;
23474;SDS011;11910;52.086;21.066;2023-02-28T04:36:12;34.10;;;20.30;;
23474;SDS011;11910;52.086;21.066;2023-02-28T04:38:39;32.13;;;18.63;;
23474;SDS011;11910;52.086;21.066;2023-02-28T04:41:05;27.95;;;17.42;;
23474;SDS011;11910;52.086;21.066;2023-02-28T04:43:31;28.67;;;18.05;;
23474;SDS011;11910;52.086;21.066;2023-02-28T04:45:58;27.30;;;17.13;;
23474;SDS011;11910;52.086;21.066;2023-02-28T04:48:28;30.70;;;17.92;;
23474;SDS011;11910;52.086;21.066;2023-02-28T04:50:54;30.02;;;17.42;;
23474;SDS011;11910;52.086;21.066;2023-02-28T04:53:20;33.30;;;18.20;;
23474;SDS011;11910;52.086;21.066;2023-02-28T04:55:46;34.67;;;19.15;;
23474;SDS011;11910;52.086;21.066;2023-02-28T04:58:12;31.90;;;18.27;;
23474;SDS011;11910;52.086;21.066;2023-02-28T05:00:39;31.30;;;18.55;;
23474;SDS011;11910;52.086;21.066;2023-02-28T05:03:05;29.77;;;17.27;;
23474;SDS011;11910;52.086;21.066;2023-02-28T05:05:31;31.63;;;18.77;;
23474;SDS011;11910;52.086;21.066;2023-02-28T05:07:56;34.17;;;19.30;;
23474;SDS011;11910;52.086;21.066;2023-02-28T05:10:22;30.73;;;18.85;;
23474;SDS011;11910;52.086;21.066;2023-02-28T05:12:48;34.13;;;21.58;;
23474;SDS011;11910;52.086;21.066;2023-02-28T05:15:14;39.85;;;22.50;;
23474;SDS011;11910;52.086;21.066;2023-02-28T05:17:41;37.75;;;22.42;;
23474;SDS011;11910;52.086;21.066;2023-02-28T05:20:07;38.47;;;21.70;;
23474;SDS011;11910;52.086;21.066;2023-02-28T05:22:35;29.50;;;18.23;;
23474;SDS011;11910;52.086;21.066;2023-02-28T05:25:02;35.92;;;20.85;;
23474;SDS011;11910;52.086;21.066;2023-02-28T05:27:29;34.17;;;20.30;;
23474;SDS011;11910;52.086;21.066;2023-02-28T05:29:55;35.05;;;20.42;;
23474;SDS011;11910;52.086;21.066;2023-02-28T05:32:21;34.85;;;20.38;;
23474;SDS011;11910;52.086;21.066;2023-02-28T05:34:47;33.58;;;20.23;;
23474;SDS011;11910;52.086;21.066;2023-02-28T05:37:13;34.08;;;20.38;;
23474;SDS011;11910;52.086;21.066;2023-02-28T05:39:39;34.80;;;20.40;;
23474;SDS011;11910;52.086;21.066;2023-02-28T05:42:05;37.67;;;21.25;;
23474;SDS011;11910;52.086;21.066;2023-02-28T05:44:31;32.58;;;19.33;;
23474;SDS011;11910;52.086;21.066;2023-02-28T05:46:57;34.63;;;19.67;;
23474;SDS011;11910;52.086;21.066;2023-02-28T05:49:22;36.38;;;19.98;;
23474;SDS011;11910;52.086;21.066;2023-02-28T05:51:48;37.17;;;20.88;;
23474;SDS011;11910;52.086;21.066;2023-02-28T05:54:14;37.25;;;20.35;;
23474;SDS011;11910;52.086;21.066;2023-02-28T05:56:39;35.28;;;19.83;;
23474;SDS011;11910;52.086;21.066;2023-02-28T05:59:08;34.22;;;19.65;;
23474;SDS011;11910;52.086;21.066;2023-02-28T06:01:44;36.40;;;21.13;;
23474;SDS011;11910;52.086;21.066;2023-02-28T06:04:13;34.55;;;21.38;;
23474;SDS011;11910;52.086;21.066;2023-02-28T06:06:43;35.58;;;20.88;;
23474;SDS011;11910;52.086;21.066;2023-02-28T06:09:09;37.08;;;21.02;;
23474;SDS011;11910;52.086;21.066;2023-02-28T06:11:35;37.15;;;20.95;;
23474;SDS011;11910;52.086;21.066;2023-02-28T06:14:01;35.05;;;20.08;;
23474;SDS011;11910;52.086;21.066;2023-02-28T06:16:28;33.47;;;20.75;;
23474;SDS011;11910;52.086;21.066;2023-02-28T06:18:56;34.72;;;19.65;;
23474;SDS011;11910;52.086;21.066;2023-02-28T06:21:22;33.22;;;19.90;;
23474;SDS011;11910;52.086;21.066;2023-02-28T06:23:48;34.28;;;20.60;;
23474;SDS011;11910;52.086;21.066;2023-02-28T06:26:13;39.65;;;21.55;;
23474;SDS011;11910;52.086;21.066;2023-02-28T06:28:39;47.63;;;23.77;;
23474;SDS011;11910;52.086;21.066;2023-02-28T06:31:06;44.30;;;24.02;;
23474;SDS011;11910;52.086;21.066;2023-02-28T06:33:33;66.18;;;30.10;;
23474;SDS011;11910;52.086;21.066;2023-02-28T06:36:00;55.90;;;27.80;;
23474;SDS011;11910;52.086;21.066;2023-02-28T06:38:26;53.15;;;26.73;;
23474;SDS011;11910;52.086;21.066;2023-02-28T06:40:55;64.35;;;30.25;;
23474;SDS011;11910;52.086;21.066;2023-02-28T06:43:22;72.30;;;32.13;;
23474;SDS011;11910;52.086;21.066;2023-02-28T06:45:48;69.28;;;32.28;;
23474;SDS011;11910;52.086;21.066;2023-02-28T06:48:14;69.35;;;31.50;;
23474;SDS011;11910;52.086;21.066;2023-02-28T06:50:48;75.25;;;33.53;;
23474;SDS011;11910;52.086;21.066;2023-02-28T06:53:13;66.45;;;30.25;;
23474;SDS011;11910;52.086;21.066;2023-02-28T06:55:39;66.85;;;31.15;;
23474;SDS011;11910;52.086;21.066;2023-02-28T06:58:06;54.35;;;26.77;;
23474;SDS011;11910;52.086;21.066;2023-02-28T07:00:42;52.08;;;25.75;;
23474;SDS011;11910;52.086;21.066;2023-02-28T07:03:09;45.92;;;24.25;;
23474;SDS011;11910;52.086;21.066;2023-02-28T07:05:43;39.75;;;22.08;;
23474;SDS011;11910;52.086;21.066;2023-02-28T07:08:08;40.28;;;21.23;;
23474;SDS011;11910;52.086;21.066;2023-02-28T07:10:36;40.72;;;21.58;;
23474;SDS011;11910;52.086;21.066;2023-02-28T07:13:06;40.72;;;22.55;;
23474;SDS011;11910;52.086;21.066;2023-02-28T07:15:32;37.88;;;21.90;;
23474;SDS011;11910;52.086;21.066;2023-02-28T07:17:58;32.00;;;19.17;;
23474;SDS011;11910;52.086;21.066;2023-02-28T07:20:26;34.38;;;19.80;;
23474;SDS011;11910;52.086;21.066;2023-02-28T07:22:52;31.75;;;19.05;;
23474;SDS011;11910;52.086;21.066;2023-02-28T07:25:30;34.25;;;19.27;;
23474;SDS011;11910;52.086;21.066;2023-02-28T07:28:03;39.70;;;21.85;;
23474;SDS011;11910;52.086;21.066;2023-02-28T07:30:38;39.15;;;21.80;;
23474;SDS011;11910;52.086;21.066;2023-02-28T07:33:08;35.75;;;20.42;;
23474;SDS011;11910;52.086;21.066;2023-02-28T07:35:43;32.90;;;18.60;;
23474;SDS011;11910;52.086;21.066;2023-02-28T07:38:09;34.83;;;19.73;;
23474;SDS011;11910;52.086;21.066;2023-02-28T07:40:38;32.15;;;19.23;;
23474;SDS011;11910;52.086;21.066;2023-02-28T07:43:04;31.00;;;18.88;;
23474;SDS011;11910;52.086;21.066;2023-02-28T07:45:36;36.28;;;20.33;;
23474;SDS011;11910;52.086;21.066;2023-02-28T07:48:01;29.67;;;16.80;;
23474;SDS011;11910;52.086;21.066;2023-02-28T07:50:30;32.97;;;17.65;;
23474;SDS011;11910;52.086;21.066;2023-02-28T07:52:57;27.42;;;15.40;;
23474;SDS011;11910;52.086;21.066;2023-02-28T07:55:26;18.23;;;12.00;;
23474;SDS011;11910;52.086;21.066;2023-02-28T07:57:52;23.48;;;13.73;;
23474;SDS011;11910;52.086;21.066;2023-02-28T08:00:18;22.00;;;11.82;;
23474;SDS011;11910;52.086;21.066;2023-02-28T08:02:44;18.08;;;11.85;;
23474;SDS011;11910;52.086;21.066;2023-02-28T08:05:10;20.95;;;12.10;;
23474;SDS011;11910;52.086;21.066;2023-02-28T08:07:35;14.75;;;10.40;;
23474;SDS011;11910;52.086;21.066;2023-02-28T08:10:06;17.40;;;10.93;;
23474;SDS011;11910;52.086;21.066;2023-02-28T08:12:36;15.90;;;10.20;;
23474;SDS011;11910;52.086;21.066;2023-02-28T08:15:01;16.55;;;9.70;;
23474;SDS011;11910;52.086;21.066;2023-02-28T08:17:33;14.50;;;9.10;;
23474;SDS011;11910;52.086;21.066;2023-02-28T08:19:58;12.07;;;8.27;;
23474;SDS011;11910;52.086;21.066;2023-02-28T08:22:24;14.05;;;8.88;;
23474;SDS011;11910;52.086;21.066;2023-02-28T08:24:52;15.27;;;8.20;;
23474;SDS011;11910;52.086;21.066;2023-02-28T08:27:18;12.52;;;8.30;;
23474;SDS011;11910;52.086;21.066;2023-02-28T08:29:43;13.63;;;8.05;;
23474;SDS011;11910;52.086;21.066;2023-02-28T08:32:17;13.32;;;8.63;;
23474;SDS011;11910;52.086;21.066;2023-02-28T08:35:23;11.18;;;7.70;;
23474;SDS011;11910;52.086;21.066;2023-02-28T08:37:52;12.55;;;8.05;;
23474;SDS011;11910;52.086;21.066;2023-02-28T08:40:17;12.02;;;7.63;;
23474;SDS011;11910;52.086;21.066;2023-02-28T08:42:44;9.90;;;6.70;;
23474;SDS011;11910;52.086;21.066;2023-02-28T08:45:10;11.15;;;7.65;;
23474;SDS011;11910;52.086;21.066;2023-02-28T08:47:37;12.48;;;8.52;;
23474;SDS011;11910;52.086;21.066;2023-02-28T08:50:03;11.77;;;7.22;;
23474;SDS011;11910;52.086;21.066;2023-02-28T08:52:29;10.57;;;6.88;;
23474;SDS011;11910;52.086;21.066;2023-02-28T08:54:55;9.60;;;7.00;;
23474;SDS011;11910;52.086;21.066;2023-02-28T08:57:23;11.13;;;7.28;;
23474;SDS011;11910;52.086;21.066;2023-02-28T08:59:51;10.52;;;7.20;;
23474;SDS011;11910;52.086;21.066;2023-02-28T09:02:17;12.25;;;7.32;;
23474;SDS011;11910;52.086;21.066;2023-02-28T09:04:45;10.85;;;6.90;;
23474;SDS011;11910;52.086;21.066;2023-02-28T09:07:11;10.27;;;7.18;;
23474;SDS011;11910;52.086;21.066;2023-02-28T09:09:37;10.85;;;7.30;;
23474;SDS011;11910;52.086;21.066;2023-02-28T09:12:03;10.27;;;7.25;;
23474;SDS011;11910;52.086;21.066;2023-02-28T09:14:29;11.00;;;7.30;;
23474;SDS011;11910;52.086;21.066;2023-02-28T09:16:57;9.85;;;7.10;;
23474;SDS011;11910;52.086;21.066;2023-02-28T09:19:23;11.95;;;7.68;;
23474;SDS011;11910;52.086;21.066;2023-02-28T09:21:48;10.18;;;7.30;;
23474;SDS011;11910;52.086;21.066;2023-02-28T09:24:14;9.52;;;7.10;;
23474;SDS011;11910;52.086;21.066;2023-02-28T09:26:40;10.93;;;7.30;;
23474;SDS011;11910;52.086;21.066;2023-02-28T09:29:06;11.98;;;7.20;;
23474;SDS011;11910;52.086;21.066;2023-02-28T09:31:32;11.77;;;8.00;;
23474;SDS011;11910;52.086;21.066;2023-02-28T09:34:00;11.07;;;7.30;;
23474;SDS011;11910;52.086;21.066;2023-02-28T09:36:26;11.05;;;7.80;;
23474;SDS011;11910;52.086;21.066;2023-02-28T09:38:53;10.88;;;8.00;;
23474;SDS011;11910;52.086;21.066;2023-02-28T09:41:24;11.93;;;7.85;;
23474;SDS011;11910;52.086;21.066;2023-02-28T09:43:56;11.00;;;8.20;;
23474;SDS011;11910;52.086;21.066;2023-02-28T09:48:53;11.50;;;8.30;;
23474;SDS011;11910;52.086;21.066;2023-02-28T09:53:58;9.90;;;7.53;;
23474;SDS011;11910;52.086;21.066;2023-02-28T09:56:36;12.07;;;8.40;;
23474;SDS011;11910;52.086;21.066;2023-02-28T10:05:05;12.65;;;8.18;;
23474;SDS011;11910;52.086;21.066;2023-02-28T10:07:05;11.63;;;8.55;;
23474;SDS011;11910;52.086;21.066;2023-02-28T10:09:43;13.93;;;8.00;;
23474;SDS011;11910;52.086;21.066;2023-02-28T10:12:11;12.75;;;8.50;;
23474;SDS011;11910;52.086;21.066;2023-02-28T10:14:41;11.25;;;8.00;;
23474;SDS011;11910;52.086;21.066;2023-02-28T10:17:12;13.82;;;8.30;;
23474;SDS011;11910;52.086;21.066;2023-02-28T10:25:22;11.30;;;7.97;;
23474;SDS011;11910;52.086;21.066;2023-02-28T10:27:53;11.82;;;8.40;;
23474;SDS011;11910;52.086;21.066;2023-02-28T10:30:43;11.68;;;8.48;;
23474;SDS011;11910;52.086;21.066;2023-02-28T10:36:00;11.40;;;7.75;;
23474;SDS011;11910;52.086;21.066;2023-02-28T10:38:48;9.95;;;7.20;;
23474;SDS011;11910;52.086;21.066;2023-02-28T10:41:28;11.80;;;7.97;;
23474;SDS011;11910;52.086;21.066;2023-02-28T10:44:14;10.13;;;7.43;;
23474;SDS011;11910;52.086;21.066;2023-02-28T10:46:44;8.93;;;7.13;;
23474;SDS011;11910;52.086;21.066;2023-02-28T10:49:25;10.35;;;7.90;;
23474;SDS011;11910;52.086;21.066;2023-02-28T10:51:59;9.18;;;7.82;;
23474;SDS011;11910;52.086;21.066;2023-02-28T10:54:31;10.77;;;8.20;;
23474;SDS011;11910;52.086;21.066;2023-02-28T10:59:42;12.32;;;7.63;;
23474;SDS011;11910;52.086;21.066;2023-02-28T11:05:27;12.40;;;7.90;;
23474;SDS011;11910;52.086;21.066;2023-02-28T11:08:02;13.13;;;8.80;;
23474;SDS011;11910;52.086;21.066;2023-02-28T11:10:44;18.30;;;9.05;;
23474;SDS011;11910;52.086;21.066;2023-02-28T11:13:19;20.95;;;9.15;;
23474;SDS011;11910;52.086;21.066;2023-02-28T11:15:54;14.35;;;8.57;;
23474;SDS011;11910;52.086;21.066;2023-02-28T11:18:27;11.20;;;8.98;;
23474;SDS011;11910;52.086;21.066;2023-02-28T11:21:21;14.25;;;9.32;;
23474;SDS011;11910;52.086;21.066;2023-02-28T11:24:06;12.05;;;8.70;;
23474;SDS011;11910;52.086;21.066;2023-02-28T11:26:47;14.38;;;9.25;;
23474;SDS011;11910;52.086;21.066;2023-02-28T11:29:21;12.73;;;8.75;;
23474;SDS011;11910;52.086;21.066;2023-02-28T11:32:04;13.68;;;8.82;;
23474;SDS011;11910;52.086;21.066;2023-02-28T11:34:36;10.60;;;8.80;;
23474;SDS011;11910;52.086;21.066;2023-02-28T11:37:03;9.45;;;7.72;;
23474;SDS011;11910;52.086;21.066;2023-02-28T11:39:30;11.15;;;8.88;;
23474;SDS011;11910;52.086;21.066;2023-02-28T11:44:43;12.10;;;9.10;;
23474;SDS011;11910;52.086;21.066;2023-02-28T11:52:56;11.15;;;8.38;;
23474;SDS011;11910;52.086;21.066;2023-02-28T11:55:35;11.77;;;8.70;;
23474;SDS011;11910;52.086;21.066;2023-02-28T12:06:28;11.38;;;8.68;;
23474;SDS011;11910;52.086;21.066;2023-02-28T12:14:33;11.85;;;8.88;;
23474;SDS011;11910;52.086;21.066;2023-02-28T12:17:37;11.18;;;8.48;;
23474;SDS011;11910;52.086;21.066;2023-02-28T12:28:52;15.38;;;8.70;;
23474;SDS011;11910;52.086;21.066;2023-02-28T12:31:24;13.35;;;9.25;;
23474;SDS011;11910;52.086;21.066;2023-02-28T12:33:59;10.98;;;8.65;;
23474;SDS011;11910;52.086;21.066;2023-02-28T12:36:31;11.73;;;9.15;;
23474;SDS011;11910;52.086;21.066;2023-02-28T12:39:08;12.65;;;9.10;;
23474;SDS011;11910;52.086;21.066;2023-02-28T12:41:45;11.82;;;9.10;;
23474;SDS011;11910;52.086;21.066;2023-02-28T12:44:20;12.00;;;9.35;;
23474;SDS011;11910;52.086;21.066;2023-02-28T12:47:03;12.85;;;9.50;;
23474;SDS011;11910;52.086;21.066;2023-02-28T12:49:31;12.13;;;8.95;;
23474;SDS011;11910;52.086;21.066;2023-02-28T12:52:03;12.27;;;9.48;;
23474;SDS011;11910;52.086;21.066;2023-02-28T12:59:56;13.50;;;8.48;;
23474;SDS011;11910;52.086;21.066;2023-02-28T13:10:44;13.70;;;8.65;;
23474;SDS011;11910;52.086;21.066;2023-02-28T13:13:13;11.45;;;8.95;;
23474;SDS011;11910;52.086;21.066;2023-02-28T13:15:41;13.02;;;8.90;;
23474;SDS011;11910;52.086;21.066;2023-02-28T13:18:36;13.40;;;8.52;;
23474;SDS011;11910;52.086;21.066;2023-02-28T13:21:32;11.38;;;9.27;;
23474;SDS011;11910;52.086;21.066;2023-02-28T13:24:09;12.73;;;9.60;;
23474;SDS011;11910;52.086;21.066;2023-02-28T13:29:03;12.88;;;9.32;;
23474;SDS011;11910;52.086;21.066;2023-02-28T13:39:46;13.40;;;9.63;;
23474;SDS011;11910;52.086;21.066;2023-02-28T13:47:28;14.52;;;10.27;;
23474;SDS011;11910;52.086;21.066;2023-02-28T13:52:57;14.95;;;10.63;;
23474;SDS011;11910;52.086;21.066;2023-02-28T13:58:50;15.40;;;10.40;;
23474;SDS011;11910;52.086;21.066;2023-02-28T14:04:11;14.75;;;9.70;;
23474;SDS011;11910;52.086;21.066;2023-02-28T14:06:54;14.70;;;10.27;;
23474;SDS011;11910;52.086;21.066;2023-02-28T14:11:52;20.30;;;11.68;;
23474;SDS011;11910;52.086;21.066;2023-02-28T14:17:03;17.45;;;10.38;;
23474;SDS011;11910;52.086;21.066;2023-02-28T14:19:35;15.50;;;10.18;;
23474;SDS011;11910;52.086;21.066;2023-02-28T14:32:54;14.00;;;10.43;;
23474;SDS011;11910;52.086;21.066;2023-02-28T14:38:18;14.48;;;10.07;;
23474;SDS011;11910;52.086;21.066;2023-02-28T14:40:48;16.38;;;10.63;;
23474;SDS011;11910;52.086;21.066;2023-02-28T14:43:21;14.70;;;9.95;;
23474;SDS011;11910;52.086;21.066;2023-02-28T14:48:26;16.50;;;11.07;;
23474;SDS011;11910;52.086;21.066;2023-02-28T14:50:59;14.75;;;10.48;;
23474;SDS011;11910;52.086;21.066;2023-02-28T14:53:34;18.42;;;11.15;;
23474;SDS011;11910;52.086;21.066;2023-02-28T14:56:17;16.17;;;10.93;;
23474;SDS011;11910;52.086;21.066;2023-02-28T14:58:51;17.35;;;10.55;;
23474;SDS011;11910;52.086;21.066;2023-02-28T15:01:23;18.63;;;11.05;;
23474;SDS011;11910;52.086;21.066;2023-02-28T15:06:26;20.88;;;11.00;;
23474;SDS011;11910;52.086;21.066;2023-02-28T15:11:54;17.98;;;11.65;;
23474;SDS011;11910;52.086;21.066;2023-02-28T15:14:20;18.33;;;11.07;;
23474;SDS011;11910;52.086;21.066;2023-02-28T15:16:49;16.35;;;11.02;;
23474;SDS011;11910;52.086;21.066;2023-02-28T15:19:30;17.10;;;10.95;;
23474;SDS011;11910;52.086;21.066;2023-02-28T15:22:00;15.38;;;10.90;;
23474;SDS011;11910;52.086;21.066;2023-02-28T15:27:12;17.98;;;11.63;;
23474;SDS011;11910;52.086;21.066;2023-02-28T15:29:48;17.63;;;11.40;;
23474;SDS011;11910;52.086;21.066;2023-02-28T15:32:28;15.10;;;11.70;;
23474;SDS011;11910;52.086;21.066;2023-02-28T15:34:57;17.63;;;11.70;;
23474;SDS011;11910;52.086;21.066;2023-02-28T15:48:03;24.52;;;11.68;;
23474;SDS011;11910;52.086;21.066;2023-02-28T15:50:30;17.77;;;11.00;;
23474;SDS011;11910;52.086;21.066;2023-02-28T15:52:56;21.25;;;12.40;;
23474;SDS011;11910;52.086;21.066;2023-02-28T15:55:23;23.08;;;12.18;;
23474;SDS011;11910;52.086;21.066;2023-02-28T15:57:57;17.98;;;11.88;;
23474;SDS011;11910;52.086;21.066;2023-02-28T16:00:29;22.60;;;12.38;;
23474;SDS011;11910;52.086;21.066;2023-02-28T16:02:57;21.67;;;11.73;;
23474;SDS011;11910;52.086;21.066;2023-02-28T16:05:26;22.25;;;12.43;;
23474;SDS011;11910;52.086;21.066;2023-02-28T16:08:00;25.77;;;12.67;;
23474;SDS011;11910;52.086;21.066;2023-02-28T16:10:37;23.25;;;12.57;;
23474;SDS011;11910;52.086;21.066;2023-02-28T16:13:02;23.98;;;11.68;;
23474;SDS011;11910;52.086;21.066;2023-02-28T16:15:30;23.05;;;12.93;;
23474;SDS011;11910;52.086;21.066;2023-02-28T16:18:07;27.48;;;14.10;;
23474;SDS011;11910;52.086;21.066;2023-02-28T16:20:35;31.90;;;14.55;;
23474;SDS011;11910;52.086;21.066;2023-02-28T16:23:03;24.98;;;14.90;;
23474;SDS011;11910;52.086;21.066;2023-02-28T16:25:33;25.65;;;13.10;;
23474;SDS011;11910;52.086;21.066;2023-02-28T16:28:05;26.75;;;13.73;;
23474;SDS011;11910;52.086;21.066;2023-02-28T16:30:56;20.60;;;12.80;;
23474;SDS011;11910;52.086;21.066;2023-02-28T16:33:21;24.25;;;14.15;;
23474;SDS011;11910;52.086;21.066;2023-02-28T16:35:52;24.15;;;14.25;;
23474;SDS011;11910;52.086;21.066;2023-02-28T16:38:31;23.75;;;13.27;;
23474;SDS011;11910;52.086;21.066;2023-02-28T16:40:59;24.85;;;14.02;;
23474;SDS011;11910;52.086;21.066;2023-02-28T16:43:25;30.45;;;14.98;;
23474;SDS011;11910;52.086;21.066;2023-02-28T16:45:55;30.88;;;14.57;;
23474;SDS011;11910;52.086;21.066;2023-02-28T16:48:26;33.33;;;15.63;;
23474;SDS011;11910;52.086;21.066;2023-02-28T16:50:51;36.63;;;17.17;;
23474;SDS011;11910;52.086;21.066;2023-02-28T16:53:20;37.22;;;17.17;;
23474;SDS011;11910;52.086;21.066;2023-02-28T16:55:51;37.07;;;17.40;;
23474;SDS011;11910;52.086;21.066;2023-02-28T16:58:19;39.42;;;16.92;;
23474;SDS011;11910;52.086;21.066;2023-02-28T17:00:46;35.47;;;16.67;;
23474;SDS011;11910;52.086;21.066;2023-02-28T17:03:18;30.98;;;15.88;;
23474;SDS011;11910;52.086;21.066;2023-02-28T17:05:50;44.40;;;17.83;;
23474;SDS011;11910;52.086;21.066;2023-02-28T17:08:15;43.80;;;17.92;;
23474;SDS011;11910;52.086;21.066;2023-02-28T17:10:41;38.38;;;16.85;;
23474;SDS011;11910;52.086;21.066;2023-02-28T17:13:07;37.17;;;17.25;;
23474;SDS011;11910;52.086;21.066;2023-02-28T17:15:36;52.15;;;20.15;;
23474;SDS011;11910;52.086;21.066;2023-02-28T17:18:03;50.58;;;19.13;;
23474;SDS011;11910;52.086;21.066;2023-02-28T17:20:29;47.80;;;21.30;;
23474;SDS011;11910;52.086;21.066;2023-02-28T17:22:55;44.28;;;20.10;;
23474;SDS011;11910;52.086;21.066;2023-02-28T17:25:22;44.28;;;18.67;;
23474;SDS011;11910;52.086;21.066;2023-02-28T17:27:49;37.75;;;18.92;;